sensor_id;sensor_type;location;lat;lon;timestamp;temperature;humidity
30594;DHT22;33199;47.590;8.300;2023-03-04T00:01:41;8.80;66.20
30594;DHT22;33199;47.590;8.300;2023-03-04T00:04:08;8.80;66.10
30594;DHT22;33199;47.590;8.300;2023-03-04T00:06:33;8.80;66.10
30594;DHT22;33199;47.590;8.300;2023-03-04T00:09:00;8.80;66.90
30594;DHT22;33199;47.590;8.300;2023-03-04T00:11:25;8.80;66.20
30594;DHT22;33199;47.590;8.300;2023-03-04T00:13:51;8.80;66.10
30594;DHT22;33199;47.590;8.300;2023-03-04T00:16:17;8.80;66.10
30594;DHT22;33199;47.590;8.300;2023-03-04T00:18:43;8.80;66.90
30594;DHT22;33199;47.590;8.300;2023-03-04T00:21:08;8.80;66.10
30594;DHT22;33199;47.590;8.300;2023-03-04T00:23:36;8.80;66.10
30594;DHT22;33199;47.590;8.300;2023-03-04T00:26:02;8.80;66.10
30594;DHT22;33199;47.590;8.300;2023-03-04T00:28:28;8.80;66.10
30594;DHT22;33199;47.590;8.300;2023-03-04T00:30:53;8.80;66.10
30594;DHT22;33199;47.590;8.300;2023-03-04T00:33:19;8.70;66.10
30594;DHT22;33199;47.590;8.300;2023-03-04T00:35:45;8.70;66.10
30594;DHT22;33199;47.590;8.300;2023-03-04T00:38:10;8.80;66.10
30594;DHT22;33199;47.590;8.300;2023-03-04T00:40:36;8.80;66.10
30594;DHT22;33199;47.590;8.300;2023-03-04T00:43:02;8.80;66.10
30594;DHT22;33199;47.590;8.300;2023-03-04T00:45:27;8.80;66.10
30594;DHT22;33199;47.590;8.300;2023-03-04T00:47:53;8.70;66.10
30594;DHT22;33199;47.590;8.300;2023-03-04T00:50:19;8.70;66.10
30594;DHT22;33199;47.590;8.300;2023-03-04T00:52:44;8.70;66.10
30594;DHT22;33199;47.590;8.300;2023-03-04T00:55:10;8.70;66.10
30594;DHT22;33199;47.590;8.300;2023-03-04T00:57:36;8.70;66.20
30594;DHT22;33199;47.590;8.300;2023-03-04T01:00:03;8.70;66.20
30594;DHT22;33199;47.590;8.300;2023-03-04T01:02:29;8.70;66.20
30594;DHT22;33199;47.590;8.300;2023-03-04T01:04:55;8.70;66.10
30594;DHT22;33199;47.590;8.300;2023-03-04T01:07:20;8.70;66.10
30594;DHT22;33199;47.590;8.300;2023-03-04T01:09:46;8.70;66.10
30594;DHT22;33199;47.590;8.300;2023-03-04T01:12:11;8.70;66.10
30594;DHT22;33199;47.590;8.300;2023-03-04T01:14:37;8.80;66.20
30594;DHT22;33199;47.590;8.300;2023-03-04T01:17:03;8.70;66.10
30594;DHT22;33199;47.590;8.300;2023-03-04T01:19:28;8.70;66.20
30594;DHT22;33199;47.590;8.300;2023-03-04T01:21:54;8.70;66.10
30594;DHT22;33199;47.590;8.300;2023-03-04T01:24:19;8.70;66.20
30594;DHT22;33199;47.590;8.300;2023-03-04T01:26:45;8.70;66.10
30594;DHT22;33199;47.590;8.300;2023-03-04T01:29:11;8.60;66.20
30594;DHT22;33199;47.590;8.300;2023-03-04T01:31:37;8.70;66.20
30594;DHT22;33199;47.590;8.300;2023-03-04T01:34:02;8.70;66.20
30594;DHT22;33199;47.590;8.300;2023-03-04T01:36:28;8.60;66.20
30594;DHT22;33199;47.590;8.300;2023-03-04T01:38:53;8.70;66.20
30594;DHT22;33199;47.590;8.300;2023-03-04T01:41:23;8.70;66.20
30594;DHT22;33199;47.590;8.300;2023-03-04T01:43:49;8.70;66.20
30594;DHT22;33199;47.590;8.300;2023-03-04T01:46:15;8.60;66.20
30594;DHT22;33199;47.590;8.300;2023-03-04T01:48:42;8.70;66.20
30594;DHT22;33199;47.590;8.300;2023-03-04T01:51:13;8.70;66.20
30594;DHT22;33199;47.590;8.300;2023-03-04T01:53:39;8.60;66.10
30594;DHT22;33199;47.590;8.300;2023-03-04T01:56:15;8.70;66.20
30594;DHT22;33199;47.590;8.300;2023-03-04T01:58:43;8.60;66.20
30594;DHT22;33199;47.590;8.300;2023-03-04T02:01:12;8.60;66.90
30594;DHT22;33199;47.590;8.300;2023-03-04T02:03:38;8.60;66.20
30594;DHT22;33199;47.590;8.300;2023-03-04T02:06:05;8.60;67.00
30594;DHT22;33199;47.590;8.300;2023-03-04T02:08:30;8.60;66.30
30594;DHT22;33199;47.590;8.300;2023-03-04T02:10:56;8.60;66.20
30594;DHT22;33199;47.590;8.300;2023-03-04T02:13:22;8.60;66.20
30594;DHT22;33199;47.590;8.300;2023-03-04T02:15:47;8.60;66.20
30594;DHT22;33199;47.590;8.300;2023-03-04T02:18:21;8.60;66.20
30594;DHT22;33199;47.590;8.300;2023-03-04T02:26:28;8.60;66.20
30594;DHT22;33199;47.590;8.300;2023-03-04T02:28:56;8.60;66.20
30594;DHT22;33199;47.590;8.300;2023-03-04T02:34:16;8.60;66.20
30594;DHT22;33199;47.590;8.300;2023-03-04T02:36:43;8.60;66.20
30594;DHT22;33199;47.590;8.300;2023-03-04T02:41:37;8.50;66.20
30594;DHT22;33199;47.590;8.300;2023-03-04T02:44:19;8.50;66.20
30594;DHT22;33199;47.590;8.300;2023-03-04T02:46:46;8.60;66.30
30594;DHT22;33199;47.590;8.300;2023-03-04T02:49:12;8.50;66.20
30594;DHT22;33199;47.590;8.300;2023-03-04T02:51:38;8.60;66.20
30594;DHT22;33199;47.590;8.300;2023-03-04T02:54:17;8.60;66.30
30594;DHT22;33199;47.590;8.300;2023-03-04T02:56:54;8.50;66.20
30594;DHT22;33199;47.590;8.300;2023-03-04T02:59:21;8.50;66.20
30594;DHT22;33199;47.590;8.300;2023-03-04T03:01:47;8.50;66.20
30594;DHT22;33199;47.590;8.300;2023-03-04T03:04:13;8.60;66.30
30594;DHT22;33199;47.590;8.300;2023-03-04T03:06:39;8.50;66.20
30594;DHT22;33199;47.590;8.300;2023-03-04T03:09:05;8.50;66.20
30594;DHT22;33199;47.590;8.300;2023-03-04T03:11:31;8.50;66.20
30594;DHT22;33199;47.590;8.300;2023-03-04T03:13:57;8.50;66.10
30594;DHT22;33199;47.590;8.300;2023-03-04T03:16:23;8.50;66.10
30594;DHT22;33199;47.590;8.300;2023-03-04T03:18:48;8.50;66.20
30594;DHT22;33199;47.590;8.300;2023-03-04T03:21:14;8.50;66.10
30594;DHT22;33199;47.590;8.300;2023-03-04T03:23:40;8.50;66.10
30594;DHT22;33199;47.590;8.300;2023-03-04T03:26:06;8.50;66.10
30594;DHT22;33199;47.590;8.300;2023-03-04T03:28:33;8.50;66.20
30594;DHT22;33199;47.590;8.300;2023-03-04T03:30:58;8.50;66.10
30594;DHT22;33199;47.590;8.300;2023-03-04T03:33:24;8.50;66.20
30594;DHT22;33199;47.590;8.300;2023-03-04T03:35:50;8.50;66.10
30594;DHT22;33199;47.590;8.300;2023-03-04T03:38:16;8.50;66.20
30594;DHT22;33199;47.590;8.300;2023-03-04T03:40:41;8.50;66.10
30594;DHT22;33199;47.590;8.300;2023-03-04T03:43:07;8.50;66.10
30594;DHT22;33199;47.590;8.300;2023-03-04T03:45:34;8.50;66.10
30594;DHT22;33199;47.590;8.300;2023-03-04T03:48:00;8.50;66.10
30594;DHT22;33199;47.590;8.300;2023-03-04T03:50:25;8.50;66.20
30594;DHT22;33199;47.590;8.300;2023-03-04T03:52:52;8.50;66.10
30594;DHT22;33199;47.590;8.300;2023-03-04T03:55:18;8.50;66.10
30594;DHT22;33199;47.590;8.300;2023-03-04T03:57:44;8.50;66.10
30594;DHT22;33199;47.590;8.300;2023-03-04T04:00:10;8.50;66.10
30594;DHT22;33199;47.590;8.300;2023-03-04T04:02:35;8.50;66.10
30594;DHT22;33199;47.590;8.300;2023-03-04T04:05:03;8.50;66.10
30594;DHT22;33199;47.590;8.300;2023-03-04T04:07:29;8.50;66.10
30594;DHT22;33199;47.590;8.300;2023-03-04T04:09:54;8.40;66.00
30594;DHT22;33199;47.590;8.300;2023-03-04T04:12:20;8.50;66.10
30594;DHT22;33199;47.590;8.300;2023-03-04T04:14:45;8.50;66.10
30594;DHT22;33199;47.590;8.300;2023-03-04T04:17:12;8.50;66.10
30594;DHT22;33199;47.590;8.300;2023-03-04T04:19:41;8.50;66.10
30594;DHT22;33199;47.590;8.300;2023-03-04T04:22:15;8.50;66.10
30594;DHT22;33199;47.590;8.300;2023-03-04T04:24:42;8.50;66.10
30594;DHT22;33199;47.590;8.300;2023-03-04T04:27:07;8.40;66.00
30594;DHT22;33199;47.590;8.300;2023-03-04T04:29:33;8.40;66.10
30594;DHT22;33199;47.590;8.300;2023-03-04T04:31:59;8.40;66.00
30594;DHT22;33199;47.590;8.300;2023-03-04T04:34:25;8.40;66.10
30594;DHT22;33199;47.590;8.300;2023-03-04T04:36:51;8.40;66.10
30594;DHT22;33199;47.590;8.300;2023-03-04T04:39:17;8.40;66.80
30594;DHT22;33199;47.590;8.300;2023-03-04T04:41:44;8.40;66.10
30594;DHT22;33199;47.590;8.300;2023-03-04T04:44:10;8.40;66.10
30594;DHT22;33199;47.590;8.300;2023-03-04T04:46:37;8.40;66.10
30594;DHT22;33199;47.590;8.300;2023-03-04T04:49:03;8.40;66.10
30594;DHT22;33199;47.590;8.300;2023-03-04T04:51:29;8.40;66.00
30594;DHT22;33199;47.590;8.300;2023-03-04T04:53:55;8.40;66.10
30594;DHT22;33199;47.590;8.300;2023-03-04T04:56:23;8.40;66.00
30594;DHT22;33199;47.590;8.300;2023-03-04T04:58:55;8.40;66.00
30594;DHT22;33199;47.590;8.300;2023-03-04T05:01:21;8.40;66.00
30594;DHT22;33199;47.590;8.300;2023-03-04T05:03:47;8.40;66.00
30594;DHT22;33199;47.590;8.300;2023-03-04T05:06:15;8.40;66.00
30594;DHT22;33199;47.590;8.300;2023-03-04T05:08:41;8.40;66.00
30594;DHT22;33199;47.590;8.300;2023-03-04T05:11:07;8.40;66.00
30594;DHT22;33199;47.590;8.300;2023-03-04T05:13:33;8.30;66.00
30594;DHT22;33199;47.590;8.300;2023-03-04T05:15:59;8.30;66.00
30594;DHT22;33199;47.590;8.300;2023-03-04T05:18:26;8.30;66.00
30594;DHT22;33199;47.590;8.300;2023-03-04T05:20:57;8.30;66.00
30594;DHT22;33199;47.590;8.300;2023-03-04T05:23:23;8.30;66.00
30594;DHT22;33199;47.590;8.300;2023-03-04T05:25:49;8.30;66.00
30594;DHT22;33199;47.590;8.300;2023-03-04T05:28:15;8.30;65.90
30594;DHT22;33199;47.590;8.300;2023-03-04T05:30:43;8.30;65.90
30594;DHT22;33199;47.590;8.300;2023-03-04T05:33:09;8.30;66.00
30594;DHT22;33199;47.590;8.300;2023-03-04T05:35:36;8.30;65.90
30594;DHT22;33199;47.590;8.300;2023-03-04T05:38:03;8.30;66.00
30594;DHT22;33199;47.590;8.300;2023-03-04T05:40:30;8.30;65.90
30594;DHT22;33199;47.590;8.300;2023-03-04T05:42:56;8.30;65.90
30594;DHT22;33199;47.590;8.300;2023-03-04T05:45:22;8.30;65.80
30594;DHT22;33199;47.590;8.300;2023-03-04T05:47:47;8.30;65.80
30594;DHT22;33199;47.590;8.300;2023-03-04T05:50:13;8.30;65.90
30594;DHT22;33199;47.590;8.300;2023-03-04T05:52:40;8.30;65.90
30594;DHT22;33199;47.590;8.300;2023-03-04T05:55:06;8.30;65.90
30594;DHT22;33199;47.590;8.300;2023-03-04T05:57:32;8.30;66.00
30594;DHT22;33199;47.590;8.300;2023-03-04T05:59:57;8.30;65.90
30594;DHT22;33199;47.590;8.300;2023-03-04T06:02:23;8.30;65.80
30594;DHT22;33199;47.590;8.300;2023-03-04T06:04:48;8.30;65.90
30594;DHT22;33199;47.590;8.300;2023-03-04T06:07:14;8.30;65.90
30594;DHT22;33199;47.590;8.300;2023-03-04T06:09:40;8.30;66.00
30594;DHT22;33199;47.590;8.300;2023-03-04T06:12:05;8.30;65.90
30594;DHT22;33199;47.590;8.300;2023-03-04T06:14:31;8.30;65.90
30594;DHT22;33199;47.590;8.300;2023-03-04T06:16:57;8.30;65.90
30594;DHT22;33199;47.590;8.300;2023-03-04T06:19:22;8.30;65.80
30594;DHT22;33199;47.590;8.300;2023-03-04T06:21:48;8.20;65.80
30594;DHT22;33199;47.590;8.300;2023-03-04T06:24:13;8.30;65.90
30594;DHT22;33199;47.590;8.300;2023-03-04T06:26:39;8.20;65.80
30594;DHT22;33199;47.590;8.300;2023-03-04T06:29:05;8.20;65.80
30594;DHT22;33199;47.590;8.300;2023-03-04T06:31:31;8.30;65.90
30594;DHT22;33199;47.590;8.300;2023-03-04T06:33:56;8.20;65.80
30594;DHT22;33199;47.590;8.300;2023-03-04T06:36:22;8.20;65.80
30594;DHT22;33199;47.590;8.300;2023-03-04T06:38:48;8.20;65.70
30594;DHT22;33199;47.590;8.300;2023-03-04T06:41:13;8.20;65.80
30594;DHT22;33199;47.590;8.300;2023-03-04T06:43:40;8.20;65.80
30594;DHT22;33199;47.590;8.300;2023-03-04T06:46:07;8.20;65.80
30594;DHT22;33199;47.590;8.300;2023-03-04T06:48:32;8.20;65.80
30594;DHT22;33199;47.590;8.300;2023-03-04T06:51:03;8.20;65.70
30594;DHT22;33199;47.590;8.300;2023-03-04T06:53:28;8.20;65.80
30594;DHT22;33199;47.590;8.300;2023-03-04T06:55:54;8.20;66.60
30594;DHT22;33199;47.590;8.300;2023-03-04T06:58:20;8.20;65.80
30594;DHT22;33199;47.590;8.300;2023-03-04T07:00:45;8.20;65.80
30594;DHT22;33199;47.590;8.300;2023-03-04T07:03:11;8.20;65.80
30594;DHT22;33199;47.590;8.300;2023-03-04T07:05:37;8.20;65.80
30594;DHT22;33199;47.590;8.300;2023-03-04T07:08:03;8.20;65.80
30594;DHT22;33199;47.590;8.300;2023-03-04T07:10:30;8.20;65.80
30594;DHT22;33199;47.590;8.300;2023-03-04T07:12:55;8.20;65.90
30594;DHT22;33199;47.590;8.300;2023-03-04T07:15:21;8.20;66.00
30594;DHT22;33199;47.590;8.300;2023-03-04T07:17:47;8.20;65.80
30594;DHT22;33199;47.590;8.300;2023-03-04T07:20:12;8.10;65.80
30594;DHT22;33199;47.590;8.300;2023-03-04T07:22:38;8.10;65.80
30594;DHT22;33199;47.590;8.300;2023-03-04T07:25:04;8.20;65.90
30594;DHT22;33199;47.590;8.300;2023-03-04T07:27:30;8.20;65.80
30594;DHT22;33199;47.590;8.300;2023-03-04T07:29:56;8.20;65.80
30594;DHT22;33199;47.590;8.300;2023-03-04T07:32:21;8.10;65.70
30594;DHT22;33199;47.590;8.300;2023-03-04T07:34:47;8.10;65.70
30594;DHT22;33199;47.590;8.300;2023-03-04T07:37:13;8.10;65.90
30594;DHT22;33199;47.590;8.300;2023-03-04T07:39:38;8.10;65.70
30594;DHT22;33199;47.590;8.300;2023-03-04T07:42:04;8.10;65.80
30594;DHT22;33199;47.590;8.300;2023-03-04T07:44:29;8.10;65.80
30594;DHT22;33199;47.590;8.300;2023-03-04T07:46:55;8.10;65.80
30594;DHT22;33199;47.590;8.300;2023-03-04T07:49:20;8.10;65.70
30594;DHT22;33199;47.590;8.300;2023-03-04T07:51:46;8.10;65.70
30594;DHT22;33199;47.590;8.300;2023-03-04T07:54:12;8.10;65.70
30594;DHT22;33199;47.590;8.300;2023-03-04T07:56:37;8.10;65.80
30594;DHT22;33199;47.590;8.300;2023-03-04T07:59:03;8.10;65.80
30594;DHT22;33199;47.590;8.300;2023-03-04T08:01:32;8.10;65.80
30594;DHT22;33199;47.590;8.300;2023-03-04T08:03:58;8.10;65.80
30594;DHT22;33199;47.590;8.300;2023-03-04T08:06:25;8.10;65.90
30594;DHT22;33199;47.590;8.300;2023-03-04T08:08:59;8.10;65.90
30594;DHT22;33199;47.590;8.300;2023-03-04T08:11:26;8.10;65.90
30594;DHT22;33199;47.590;8.300;2023-03-04T08:13:52;8.10;65.90
30594;DHT22;33199;47.590;8.300;2023-03-04T08:16:19;8.10;65.90
30594;DHT22;33199;47.590;8.300;2023-03-04T08:18:48;8.10;65.90
30594;DHT22;33199;47.590;8.300;2023-03-04T08:21:16;8.10;66.00
30594;DHT22;33199;47.590;8.300;2023-03-04T08:23:44;8.10;65.90
30594;DHT22;33199;47.590;8.300;2023-03-04T08:26:34;8.10;66.10
30594;DHT22;33199;47.590;8.300;2023-03-04T08:29:01;8.10;66.00
30594;DHT22;33199;47.590;8.300;2023-03-04T08:31:27;8.10;66.00
30594;DHT22;33199;47.590;8.300;2023-03-04T08:33:53;8.10;65.90
30594;DHT22;33199;47.590;8.300;2023-03-04T08:36:19;8.10;66.00
30594;DHT22;33199;47.590;8.300;2023-03-04T08:38:45;8.00;65.90
30594;DHT22;33199;47.590;8.300;2023-03-04T08:41:11;8.00;65.90
30594;DHT22;33199;47.590;8.300;2023-03-04T08:43:37;8.00;66.00
30594;DHT22;33199;47.590;8.300;2023-03-04T08:46:03;8.10;65.90
30594;DHT22;33199;47.590;8.300;2023-03-04T08:48:29;8.00;65.90
30594;DHT22;33199;47.590;8.300;2023-03-04T08:50:55;8.10;66.10
30594;DHT22;33199;47.590;8.300;2023-03-04T08:53:21;8.00;66.00
30594;DHT22;33199;47.590;8.300;2023-03-04T08:55:47;8.00;66.10
30594;DHT22;33199;47.590;8.300;2023-03-04T08:58:13;8.00;66.00
30594;DHT22;33199;47.590;8.300;2023-03-04T09:00:41;8.10;66.10
30594;DHT22;33199;47.590;8.300;2023-03-04T09:03:10;8.00;66.00
30594;DHT22;33199;47.590;8.300;2023-03-04T09:05:36;8.00;66.00
30594;DHT22;33199;47.590;8.300;2023-03-04T09:08:03;8.00;66.00
30594;DHT22;33199;47.590;8.300;2023-03-04T09:10:28;8.10;66.10
30594;DHT22;33199;47.590;8.300;2023-03-04T09:12:54;8.10;66.10
30594;DHT22;33199;47.590;8.300;2023-03-04T09:15:20;8.00;64.20
30594;DHT22;33199;47.590;8.300;2023-03-04T09:17:45;7.90;63.80
30594;DHT22;33199;47.590;8.300;2023-03-04T09:20:12;7.80;63.80
30594;DHT22;33199;47.590;8.300;2023-03-04T09:22:38;7.70;63.70
30594;DHT22;33199;47.590;8.300;2023-03-04T09:25:04;7.60;63.90
30594;DHT22;33199;47.590;8.300;2023-03-04T09:27:30;7.50;64.30
30594;DHT22;33199;47.590;8.300;2023-03-04T09:29:56;7.50;65.00
30594;DHT22;33199;47.590;8.300;2023-03-04T09:32:21;7.50;65.40
30594;DHT22;33199;47.590;8.300;2023-03-04T09:34:47;7.50;65.90
30594;DHT22;33199;47.590;8.300;2023-03-04T09:37:12;7.60;66.20
30594;DHT22;33199;47.590;8.300;2023-03-04T09:39:38;7.60;66.10
30594;DHT22;33199;47.590;8.300;2023-03-04T09:42:05;7.60;65.80
30594;DHT22;33199;47.590;8.300;2023-03-04T09:44:42;7.70;65.60
30594;DHT22;33199;47.590;8.300;2023-03-04T09:47:20;7.70;65.40
30594;DHT22;33199;47.590;8.300;2023-03-04T09:49:55;7.70;65.30
30594;DHT22;33199;47.590;8.300;2023-03-04T09:53:01;7.70;65.20
30594;DHT22;33199;47.590;8.300;2023-03-04T09:55:36;7.80;65.30
30594;DHT22;33199;47.590;8.300;2023-03-04T09:58:15;7.70;65.30
30594;DHT22;33199;47.590;8.300;2023-03-04T10:00:54;7.70;65.30
30594;DHT22;33199;47.590;8.300;2023-03-04T10:03:25;7.80;65.40
30594;DHT22;33199;47.590;8.300;2023-03-04T10:06:05;7.80;65.40
30594;DHT22;33199;47.590;8.300;2023-03-04T10:11:30;7.70;65.50
30594;DHT22;33199;47.590;8.300;2023-03-04T10:17:02;7.70;65.70
30594;DHT22;33199;47.590;8.300;2023-03-04T10:19:41;7.80;65.70
30594;DHT22;33199;47.590;8.300;2023-03-04T10:22:18;7.70;65.60
30594;DHT22;33199;47.590;8.300;2023-03-04T10:24:44;7.80;65.70
30594;DHT22;33199;47.590;8.300;2023-03-04T10:27:13;7.80;65.50
30594;DHT22;33199;47.590;8.300;2023-03-04T10:29:39;7.90;65.30
30594;DHT22;33199;47.590;8.300;2023-03-04T10:32:10;8.00;65.30
30594;DHT22;33199;47.590;8.300;2023-03-04T10:34:37;8.00;65.20
30594;DHT22;33199;47.590;8.300;2023-03-04T10:37:05;8.00;65.20
30594;DHT22;33199;47.590;8.300;2023-03-04T10:39:32;8.00;65.10
30594;DHT22;33199;47.590;8.300;2023-03-04T10:42:03;8.00;65.10
30594;DHT22;33199;47.590;8.300;2023-03-04T10:44:30;8.00;65.10
30594;DHT22;33199;47.590;8.300;2023-03-04T10:46:57;8.00;65.10
30594;DHT22;33199;47.590;8.300;2023-03-04T10:49:24;8.00;65.10
30594;DHT22;33199;47.590;8.300;2023-03-04T10:52:14;8.00;65.10
30594;DHT22;33199;47.590;8.300;2023-03-04T10:54:51;8.00;65.20
30594;DHT22;33199;47.590;8.300;2023-03-04T10:57:51;8.10;65.20
30594;DHT22;33199;47.590;8.300;2023-03-04T11:00:22;8.10;65.20
30594;DHT22;33199;47.590;8.300;2023-03-04T11:02:48;8.00;66.10
30594;DHT22;33199;47.590;8.300;2023-03-04T11:05:16;8.00;65.30
30594;DHT22;33199;47.590;8.300;2023-03-04T11:12:48;8.10;65.30
30594;DHT22;33199;47.590;8.300;2023-03-04T11:15:22;8.10;65.30
30594;DHT22;33199;47.590;8.300;2023-03-04T11:17:54;8.10;65.40
30594;DHT22;33199;47.590;8.300;2023-03-04T11:20:29;8.10;65.40
30594;DHT22;33199;47.590;8.300;2023-03-04T11:22:58;8.10;65.40
30594;DHT22;33199;47.590;8.300;2023-03-04T11:25:37;8.10;65.40
30594;DHT22;33199;47.590;8.300;2023-03-04T11:28:15;8.10;65.40
30594;DHT22;33199;47.590;8.300;2023-03-04T11:30:45;8.20;65.50
30594;DHT22;33199;47.590;8.300;2023-03-04T11:33:45;8.10;65.40
30594;DHT22;33199;47.590;8.300;2023-03-04T11:38:56;8.10;65.50
30594;DHT22;33199;47.590;8.300;2023-03-04T11:41:34;8.10;65.40
30594;DHT22;33199;47.590;8.300;2023-03-04T11:44:02;8.10;65.50
30594;DHT22;33199;47.590;8.300;2023-03-04T11:52:21;8.20;65.60
30594;DHT22;33199;47.590;8.300;2023-03-04T12:00:38;8.20;65.70
30594;DHT22;33199;47.590;8.300;2023-03-04T12:22:16;8.20;65.80
30594;DHT22;33199;47.590;8.300;2023-03-04T12:30:33;8.20;65.80
30594;DHT22;33199;47.590;8.300;2023-03-04T12:38:51;8.20;65.80
30594;DHT22;33199;47.590;8.300;2023-03-04T12:41:55;8.20;65.90
30594;DHT22;33199;47.590;8.300;2023-03-04T12:44:23;8.20;65.90
30594;DHT22;33199;47.590;8.300;2023-03-04T12:55:37;8.30;66.00
30594;DHT22;33199;47.590;8.300;2023-03-04T12:58:05;8.30;66.00
30594;DHT22;33199;47.590;8.300;2023-03-04T13:00:47;8.30;66.10
30594;DHT22;33199;47.590;8.300;2023-03-04T13:03:22;8.30;66.00
30594;DHT22;33199;47.590;8.300;2023-03-04T13:11:43;8.30;66.00
30594;DHT22;33199;47.590;8.300;2023-03-04T13:24:51;8.40;66.10
30594;DHT22;33199;47.590;8.300;2023-03-04T13:32:57;8.40;66.10
30594;DHT22;33199;47.590;8.300;2023-03-04T13:38:35;8.50;65.00
30594;DHT22;33199;47.590;8.300;2023-03-04T13:41:21;8.50;64.80
30594;DHT22;33199;47.590;8.300;2023-03-04T13:43:54;8.50;65.00
30594;DHT22;33199;47.590;8.300;2023-03-04T13:53:52;8.50;65.60
30594;DHT22;33199;47.590;8.300;2023-03-04T13:56:41;8.50;65.70
30594;DHT22;33199;47.590;8.300;2023-03-04T14:04:29;8.50;66.00
30594;DHT22;33199;47.590;8.300;2023-03-04T14:06:57;8.50;66.10
30594;DHT22;33199;47.590;8.300;2023-03-04T14:09:31;8.40;66.70
30594;DHT22;33199;47.590;8.300;2023-03-04T14:11:59;8.60;65.00
30594;DHT22;33199;47.590;8.300;2023-03-04T14:14:29;8.70;65.00
30594;DHT22;33199;47.590;8.300;2023-03-04T14:17:02;8.80;64.90
30594;DHT22;33199;47.590;8.300;2023-03-04T14:19:35;8.80;64.80
30594;DHT22;33199;47.590;8.300;2023-03-04T14:22:18;8.90;64.70
30594;DHT22;33199;47.590;8.300;2023-03-04T14:25:04;8.90;64.70
30594;DHT22;33199;47.590;8.300;2023-03-04T14:27:33;9.00;64.70
30594;DHT22;33199;47.590;8.300;2023-03-04T14:30:03;9.00;64.70
30594;DHT22;33199;47.590;8.300;2023-03-04T14:32:30;9.00;64.70
30594;DHT22;33199;47.590;8.300;2023-03-04T14:35:18;9.00;64.70
30594;DHT22;33199;47.590;8.300;2023-03-04T14:40:45;9.00;64.80
30594;DHT22;33199;47.590;8.300;2023-03-04T14:43:21;9.10;64.90
30594;DHT22;33199;47.590;8.300;2023-03-04T14:45:56;9.10;64.90
30594;DHT22;33199;47.590;8.300;2023-03-04T14:48:27;9.10;64.90
30594;DHT22;33199;47.590;8.300;2023-03-04T14:50:54;9.10;64.90
30594;DHT22;33199;47.590;8.300;2023-03-04T14:53:23;9.10;65.00
30594;DHT22;33199;47.590;8.300;2023-03-04T14:55:59;9.10;64.30
30594;DHT22;33199;47.590;8.300;2023-03-04T14:58:30;9.20;62.40
30594;DHT22;33199;47.590;8.300;2023-03-04T15:01:18;9.20;61.90
30594;DHT22;33199;47.590;8.300;2023-03-04T15:06:23;9.30;60.20
30594;DHT22;33199;47.590;8.300;2023-03-04T15:09:15;9.30;60.20
30594;DHT22;33199;47.590;8.300;2023-03-04T15:11:48;9.30;60.30
30594;DHT22;33199;47.590;8.300;2023-03-04T15:17:40;9.30;60.00
30594;DHT22;33199;47.590;8.300;2023-03-04T15:22:59;9.30;60.40
30594;DHT22;33199;47.590;8.300;2023-03-04T15:25:25;9.30;60.10
30594;DHT22;33199;47.590;8.300;2023-03-04T15:27:51;9.40;59.40
30594;DHT22;33199;47.590;8.300;2023-03-04T15:30:26;9.30;59.60
30594;DHT22;33199;47.590;8.300;2023-03-04T15:32:54;9.30;59.70
30594;DHT22;33199;47.590;8.300;2023-03-04T15:35:20;9.30;60.50
30594;DHT22;33199;47.590;8.300;2023-03-04T15:37:47;9.30;60.60
30594;DHT22;33199;47.590;8.300;2023-03-04T15:42:48;9.30;60.60
30594;DHT22;33199;47.590;8.300;2023-03-04T15:47:45;9.30;61.20
30594;DHT22;33199;47.590;8.300;2023-03-04T15:50:10;9.30;61.50
30594;DHT22;33199;47.590;8.300;2023-03-04T15:52:36;9.30;61.80
30594;DHT22;33199;47.590;8.300;2023-03-04T15:55:22;9.30;62.10
30594;DHT22;33199;47.590;8.300;2023-03-04T15:57:52;9.30;62.40
30594;DHT22;33199;47.590;8.300;2023-03-04T16:00:19;9.30;62.50
30594;DHT22;33199;47.590;8.300;2023-03-04T16:02:44;9.20;62.50
30594;DHT22;33199;47.590;8.300;2023-03-04T16:05:11;9.30;62.80
30594;DHT22;33199;47.590;8.300;2023-03-04T16:07:37;9.20;62.90
30594;DHT22;33199;47.590;8.300;2023-03-04T16:10:07;9.20;63.00
30594;DHT22;33199;47.590;8.300;2023-03-04T16:12:36;9.30;63.30
30594;DHT22;33199;47.590;8.300;2023-03-04T16:15:10;9.20;63.30
30594;DHT22;33199;47.590;8.300;2023-03-04T16:17:36;9.20;63.50
30594;DHT22;33199;47.590;8.300;2023-03-04T16:20:10;9.20;60.50
30594;DHT22;33199;47.590;8.300;2023-03-04T16:22:37;9.20;60.90
30594;DHT22;33199;47.590;8.300;2023-03-04T16:25:03;9.20;61.10
30594;DHT22;33199;47.590;8.300;2023-03-04T16:27:29;9.10;62.50
30594;DHT22;33199;47.590;8.300;2023-03-04T16:29:56;9.10;61.80
30594;DHT22;33199;47.590;8.300;2023-03-04T16:32:21;9.10;62.10
30594;DHT22;33199;47.590;8.300;2023-03-04T16:34:49;9.20;62.40
30594;DHT22;33199;47.590;8.300;2023-03-04T16:37:17;9.10;62.30
30594;DHT22;33199;47.590;8.300;2023-03-04T16:39:44;9.20;62.50
30594;DHT22;33199;47.590;8.300;2023-03-04T16:42:15;9.20;62.60
30594;DHT22;33199;47.590;8.300;2023-03-04T16:44:43;9.20;62.70
30594;DHT22;33199;47.590;8.300;2023-03-04T16:47:09;9.20;62.70
30594;DHT22;33199;47.590;8.300;2023-03-04T16:49:35;9.20;62.90
30594;DHT22;33199;47.590;8.300;2023-03-04T16:52:00;9.20;63.10
30594;DHT22;33199;47.590;8.300;2023-03-04T16:54:28;9.20;60.80
30594;DHT22;33199;47.590;8.300;2023-03-04T16:56:58;9.10;61.50
30594;DHT22;33199;47.590;8.300;2023-03-04T16:59:24;9.10;62.70
30594;DHT22;33199;47.590;8.300;2023-03-04T17:01:52;9.10;62.50
30594;DHT22;33199;47.590;8.300;2023-03-04T17:04:18;9.10;62.50
30594;DHT22;33199;47.590;8.300;2023-03-04T17:06:43;9.10;62.50
30594;DHT22;33199;47.590;8.300;2023-03-04T17:09:09;9.10;63.40
30594;DHT22;33199;47.590;8.300;2023-03-04T17:11:35;9.10;62.60
30594;DHT22;33199;47.590;8.300;2023-03-04T17:14:01;9.10;62.70
30594;DHT22;33199;47.590;8.300;2023-03-04T17:16:27;9.10;62.80
30594;DHT22;33199;47.590;8.300;2023-03-04T17:18:53;9.20;62.90
30594;DHT22;33199;47.590;8.300;2023-03-04T17:21:22;9.10;63.10
30594;DHT22;33199;47.590;8.300;2023-03-04T17:23:48;9.20;63.20
30594;DHT22;33199;47.590;8.300;2023-03-04T17:26:14;9.20;63.40
30594;DHT22;33199;47.590;8.300;2023-03-04T17:28:41;9.20;63.40
30594;DHT22;33199;47.590;8.300;2023-03-04T17:31:11;9.20;63.50
30594;DHT22;33199;47.590;8.300;2023-03-04T17:33:37;9.20;63.50
30594;DHT22;33199;47.590;8.300;2023-03-04T17:36:03;9.20;63.80
30594;DHT22;33199;47.590;8.300;2023-03-04T17:38:28;9.20;63.60
30594;DHT22;33199;47.590;8.300;2023-03-04T17:40:54;9.20;63.60
30594;DHT22;33199;47.590;8.300;2023-03-04T17:43:21;9.20;63.80
30594;DHT22;33199;47.590;8.300;2023-03-04T17:45:47;9.20;63.80
30594;DHT22;33199;47.590;8.300;2023-03-04T17:48:12;9.20;63.80
30594;DHT22;33199;47.590;8.300;2023-03-04T17:50:52;9.20;63.90
30594;DHT22;33199;47.590;8.300;2023-03-04T17:53:18;9.20;63.90
30594;DHT22;33199;47.590;8.300;2023-03-04T17:55:55;9.20;64.00
30594;DHT22;33199;47.590;8.300;2023-03-04T17:58:22;9.20;64.00
30594;DHT22;33199;47.590;8.300;2023-03-04T18:00:50;9.20;64.10
30594;DHT22;33199;47.590;8.300;2023-03-04T18:03:16;9.20;64.20